sensor_id;sensor_type;location;lat;lon;timestamp;pressure;altitude;pressure_sealevel;temperature;humidity
44351;BME280;62766;62.622;17.912;2023-02-28T00:01:08;101700.38;;;5.17;56.40
44351;BME280;62766;62.622;17.912;2023-02-28T00:03:37;101701.68;;;5.07;56.38
44351;BME280;62766;62.622;17.912;2023-02-28T00:06:07;101697.27;;;5.07;56.46
44351;BME280;62766;62.622;17.912;2023-02-28T00:08:38;101696.83;;;5.10;56.42
44351;BME280;62766;62.622;17.912;2023-02-28T00:11:09;101686.27;;;5.20;56.29
44351;BME280;62766;62.622;17.912;2023-02-28T00:13:39;101688.77;;;5.10;56.09
44351;BME280;62766;62.622;17.912;2023-02-28T00:16:11;101663.54;;;5.13;56.18
44351;BME280;62766;62.622;17.912;2023-02-28T00:18:41;101654.05;;;5.13;56.45
44351;BME280;62766;62.622;17.912;2023-02-28T00:21:09;101644.96;;;4.98;56.83
44351;BME280;62766;62.622;17.912;2023-02-28T00:23:38;101652.33;;;4.92;57.14
44351;BME280;62766;62.622;17.912;2023-02-28T00:26:08;101648.27;;;4.86;57.17
44351;BME280;62766;62.622;17.912;2023-02-28T00:28:37;101654.19;;;4.88;57.26
44351;BME280;62766;62.622;17.912;2023-02-28T00:31:06;101647.58;;;4.90;57.23
44351;BME280;62766;62.622;17.912;2023-02-28T00:33:34;101647.69;;;4.90;57.27
44351;BME280;62766;62.622;17.912;2023-02-28T00:36:05;101647.51;;;5.08;57.14
44351;BME280;62766;62.622;17.912;2023-02-28T00:38:33;101653.18;;;5.02;57.14
44351;BME280;62766;62.622;17.912;2023-02-28T00:41:01;101662.89;;;5.03;57.01
44351;BME280;62766;62.622;17.912;2023-02-28T00:43:31;101669.25;;;5.07;56.94
44351;BME280;62766;62.622;17.912;2023-02-28T00:46:00;101666.70;;;5.20;56.68
44351;BME280;62766;62.622;17.912;2023-02-28T00:48:28;101669.55;;;5.11;56.63
44351;BME280;62766;62.622;17.912;2023-02-28T00:50:57;101672.06;;;5.14;56.56
44351;BME280;62766;62.622;17.912;2023-02-28T00:53:25;101666.80;;;5.11;56.58
44351;BME280;62766;62.622;17.912;2023-02-28T00:55:53;101669.24;;;5.19;56.64
44351;BME280;62766;62.622;17.912;2023-02-28T00:58:22;101673.65;;;5.07;56.58
44351;BME280;62766;62.622;17.912;2023-02-28T01:00:50;101669.38;;;5.08;56.58
44351;BME280;62766;62.622;17.912;2023-02-28T01:03:19;101669.95;;;5.00;56.65
44351;BME280;62766;62.622;17.912;2023-02-28T01:05:48;101676.66;;;5.22;56.69
44351;BME280;62766;62.622;17.912;2023-02-28T01:08:17;101662.69;;;5.22;56.60
44351;BME280;62766;62.622;17.912;2023-02-28T01:10:45;101651.98;;;5.20;56.61
44351;BME280;62766;62.622;17.912;2023-02-28T01:13:14;101667.64;;;5.14;56.61
44351;BME280;62766;62.622;17.912;2023-02-28T01:15:49;101676.97;;;5.22;56.57
44351;BME280;62766;62.622;17.912;2023-02-28T01:18:17;101676.26;;;5.14;56.70
44351;BME280;62766;62.622;17.912;2023-02-28T01:20:46;101688.04;;;5.14;56.82
44351;BME280;62766;62.622;17.912;2023-02-28T01:23:14;101685.70;;;5.09;56.90
44351;BME280;62766;62.622;17.912;2023-02-28T01:25:42;101698.36;;;5.07;56.91
44351;BME280;62766;62.622;17.912;2023-02-28T01:28:11;101690.84;;;5.11;56.84
44351;BME280;62766;62.622;17.912;2023-02-28T01:30:39;101688.96;;;5.20;56.86
44351;BME280;62766;62.622;17.912;2023-02-28T01:33:07;101686.20;;;5.21;56.80
44351;BME280;62766;62.622;17.912;2023-02-28T01:35:37;101678.56;;;5.14;56.76
44351;BME280;62766;62.622;17.912;2023-02-28T01:38:06;101689.41;;;5.17;56.76
44351;BME280;62766;62.622;17.912;2023-02-28T01:40:34;101694.87;;;5.19;56.89
44351;BME280;62766;62.622;17.912;2023-02-28T01:43:04;101700.09;;;5.06;56.93
44351;BME280;62766;62.622;17.912;2023-02-28T01:45:34;101702.99;;;5.21;56.95
44351;BME280;62766;62.622;17.912;2023-02-28T01:48:07;101703.71;;;5.09;56.99
44351;BME280;62766;62.622;17.912;2023-02-28T01:50:39;101701.43;;;5.14;57.09
44351;BME280;62766;62.622;17.912;2023-02-28T01:53:12;101697.91;;;5.15;57.11
44351;BME280;62766;62.622;17.912;2023-02-28T01:55:45;101689.33;;;5.02;57.09
44351;BME280;62766;62.622;17.912;2023-02-28T01:58:16;101685.92;;;5.07;56.97
44351;BME280;62766;62.622;17.912;2023-02-28T02:00:44;101686.45;;;5.09;56.97
44351;BME280;62766;62.622;17.912;2023-02-28T02:03:14;101680.63;;;5.05;56.91
44351;BME280;62766;62.622;17.912;2023-02-28T02:05:42;101683.88;;;5.19;56.87
44351;BME280;62766;62.622;17.912;2023-02-28T02:08:13;101678.78;;;5.02;56.84
44351;BME280;62766;62.622;17.912;2023-02-28T02:10:44;101690.93;;;5.13;56.65
44351;BME280;62766;62.622;17.912;2023-02-28T02:13:20;101696.88;;;5.26;56.55
44351;BME280;62766;62.622;17.912;2023-02-28T02:16:00;101703.06;;;5.32;56.42
44351;BME280;62766;62.622;17.912;2023-02-28T02:18:38;101698.06;;;5.23;56.25
44351;BME280;62766;62.622;17.912;2023-02-28T02:21:40;101693.43;;;5.06;56.47
44351;BME280;62766;62.622;17.912;2023-02-28T02:24:46;101692.08;;;5.30;56.57
44351;BME280;62766;62.622;17.912;2023-02-28T02:27:47;101688.34;;;5.13;56.63
44351;BME280;62766;62.622;17.912;2023-02-28T02:31:42;101676.28;;;5.15;56.69
44351;BME280;62766;62.622;17.912;2023-02-28T02:34:26;101685.68;;;5.10;56.68
44351;BME280;62766;62.622;17.912;2023-02-28T02:37:03;101682.95;;;5.17;56.82
44351;BME280;62766;62.622;17.912;2023-02-28T02:39:45;101685.14;;;5.11;56.83
44351;BME280;62766;62.622;17.912;2023-02-28T02:42:21;101696.70;;;5.29;56.64
44351;BME280;62766;62.622;17.912;2023-02-28T02:44:57;101693.75;;;5.18;56.49
44351;BME280;62766;62.622;17.912;2023-02-28T02:47:29;101712.14;;;5.30;56.45
44351;BME280;62766;62.622;17.912;2023-02-28T02:50:03;101718.06;;;5.20;56.41
44351;BME280;62766;62.622;17.912;2023-02-28T02:52:37;101721.45;;;5.35;56.23
44351;BME280;62766;62.622;17.912;2023-02-28T02:55:09;101731.14;;;5.37;56.16
44351;BME280;62766;62.622;17.912;2023-02-28T02:57:44;101734.78;;;5.29;56.03
44351;BME280;62766;62.622;17.912;2023-02-28T03:00:17;101732.20;;;5.30;56.02
44351;BME280;62766;62.622;17.912;2023-02-28T03:02:49;101740.11;;;5.27;55.99
44351;BME280;62766;62.622;17.912;2023-02-28T03:05:25;101729.41;;;5.41;55.92
44351;BME280;62766;62.622;17.912;2023-02-28T03:07:53;101728.15;;;5.26;55.88
44351;BME280;62766;62.622;17.912;2023-02-28T03:10:29;101726.46;;;5.27;55.91
44351;BME280;62766;62.622;17.912;2023-02-28T03:13:08;101727.91;;;5.30;55.85
44351;BME280;62766;62.622;17.912;2023-02-28T03:15:50;101728.61;;;5.34;55.80
44351;BME280;62766;62.622;17.912;2023-02-28T03:18:32;101726.01;;;5.18;55.88
44351;BME280;62766;62.622;17.912;2023-02-28T03:21:13;101724.90;;;5.13;55.90
44351;BME280;62766;62.622;17.912;2023-02-28T03:23:50;101722.77;;;5.26;55.88
44351;BME280;62766;62.622;17.912;2023-02-28T03:26:23;101721.71;;;5.08;56.02
44351;BME280;62766;62.622;17.912;2023-02-28T03:29:00;101727.63;;;5.10;56.21
44351;BME280;62766;62.622;17.912;2023-02-28T03:31:35;101724.67;;;5.07;56.21
44351;BME280;62766;62.622;17.912;2023-02-28T03:34:08;101721.39;;;5.04;56.30
44351;BME280;62766;62.622;17.912;2023-02-28T03:36:41;101727.26;;;5.09;56.15
44351;BME280;62766;62.622;17.912;2023-02-28T03:39:14;101729.29;;;5.12;56.03
44351;BME280;62766;62.622;17.912;2023-02-28T03:41:49;101733.98;;;5.34;55.89
44351;BME280;62766;62.622;17.912;2023-02-28T03:44:23;101745.33;;;5.23;55.70
44351;BME280;62766;62.622;17.912;2023-02-28T03:46:58;101748.35;;;5.26;55.66
44351;BME280;62766;62.622;17.912;2023-02-28T03:49:32;101757.18;;;5.47;55.63
44351;BME280;62766;62.622;17.912;2023-02-28T03:52:05;101768.90;;;5.43;55.60
44351;BME280;62766;62.622;17.912;2023-02-28T03:54:40;101778.40;;;5.40;55.69
44351;BME280;62766;62.622;17.912;2023-02-28T03:57:17;101789.39;;;5.31;55.74
44351;BME280;62766;62.622;17.912;2023-02-28T03:59:54;101792.45;;;5.26;55.68
44351;BME280;62766;62.622;17.912;2023-02-28T04:02:24;101794.52;;;5.28;55.72
44351;BME280;62766;62.622;17.912;2023-02-28T04:04:52;101796.47;;;5.40;55.67
44351;BME280;62766;62.622;17.912;2023-02-28T04:07:21;101808.28;;;5.26;55.72
44351;BME280;62766;62.622;17.912;2023-02-28T04:09:49;101814.81;;;5.14;55.74
44351;BME280;62766;62.622;17.912;2023-02-28T04:12:17;101822.13;;;5.25;55.82
44351;BME280;62766;62.622;17.912;2023-02-28T04:14:46;101833.13;;;5.26;55.74
44351;BME280;62766;62.622;17.912;2023-02-28T04:17:14;101833.44;;;5.26;55.56
44351;BME280;62766;62.622;17.912;2023-02-28T04:19:43;101830.27;;;5.27;55.49
44351;BME280;62766;62.622;17.912;2023-02-28T04:22:11;101825.70;;;5.40;55.48
44351;BME280;62766;62.622;17.912;2023-02-28T04:24:39;101825.81;;;5.28;55.42
44351;BME280;62766;62.622;17.912;2023-02-28T04:27:08;101831.27;;;5.25;55.56
44351;BME280;62766;62.622;17.912;2023-02-28T04:29:38;101826.06;;;5.25;55.52
44351;BME280;62766;62.622;17.912;2023-02-28T04:32:08;101830.88;;;5.20;55.49
44351;BME280;62766;62.622;17.912;2023-02-28T04:34:37;101840.62;;;5.26;55.42
44351;BME280;62766;62.622;17.912;2023-02-28T04:37:06;101839.79;;;5.33;55.42
44351;BME280;62766;62.622;17.912;2023-02-28T04:39:36;101839.53;;;5.35;55.13
44351;BME280;62766;62.622;17.912;2023-02-28T04:42:05;101844.54;;;5.32;55.10
44351;BME280;62766;62.622;17.912;2023-02-28T04:44:33;101840.99;;;5.45;54.90
44351;BME280;62766;62.622;17.912;2023-02-28T04:47:01;101829.80;;;5.27;54.91
44351;BME280;62766;62.622;17.912;2023-02-28T04:49:30;101829.77;;;5.20;55.16
44351;BME280;62766;62.622;17.912;2023-02-28T04:51:58;101828.97;;;5.16;55.34
44351;BME280;62766;62.622;17.912;2023-02-28T04:54:26;101827.68;;;4.96;55.52
44351;BME280;62766;62.622;17.912;2023-02-28T04:56:55;101835.36;;;5.06;55.69
44351;BME280;62766;62.622;17.912;2023-02-28T04:59:23;101831.97;;;5.12;55.60
44351;BME280;62766;62.622;17.912;2023-02-28T05:03:23;101820.21;;;4.75;55.98
44351;BME280;62766;62.622;17.912;2023-02-28T05:05:51;101830.10;;;4.93;55.67
44351;BME280;62766;62.622;17.912;2023-02-28T05:08:20;101832.29;;;4.86;55.86
44351;BME280;62766;62.622;17.912;2023-02-28T05:10:48;101824.61;;;4.92;55.64
44351;BME280;62766;62.622;17.912;2023-02-28T05:13:16;101820.21;;;4.95;55.67
44351;BME280;62766;62.622;17.912;2023-02-28T05:15:45;101825.56;;;4.90;55.82
44351;BME280;62766;62.622;17.912;2023-02-28T05:18:13;101821.66;;;5.06;55.64
44351;BME280;62766;62.622;17.912;2023-02-28T05:20:41;101819.25;;;5.03;55.35
44351;BME280;62766;62.622;17.912;2023-02-28T05:23:11;101813.47;;;5.05;55.24
44351;BME280;62766;62.622;17.912;2023-02-28T05:25:40;101810.53;;;4.93;55.26
44351;BME280;62766;62.622;17.912;2023-02-28T05:28:08;101817.48;;;4.90;55.05
44351;BME280;62766;62.622;17.912;2023-02-28T05:30:37;101818.75;;;5.09;54.84
44351;BME280;62766;62.622;17.912;2023-02-28T05:33:05;101826.36;;;5.01;54.95
44351;BME280;62766;62.622;17.912;2023-02-28T05:35:33;101839.09;;;5.00;55.04
44351;BME280;62766;62.622;17.912;2023-02-28T05:38:03;101843.23;;;4.89;54.98
44351;BME280;62766;62.622;17.912;2023-02-28T05:40:32;101841.11;;;4.96;54.80
44351;BME280;62766;62.622;17.912;2023-02-28T05:43:01;101842.08;;;4.95;54.52
44351;BME280;62766;62.622;17.912;2023-02-28T05:45:28;101833.18;;;4.96;54.38
44351;BME280;62766;62.622;17.912;2023-02-28T05:47:57;101826.30;;;5.03;54.35
44351;BME280;62766;62.622;17.912;2023-02-28T05:50:25;101828.54;;;5.11;54.15
44351;BME280;62766;62.622;17.912;2023-02-28T05:52:53;101830.34;;;5.23;54.02
44351;BME280;62766;62.622;17.912;2023-02-28T05:55:22;101834.34;;;5.17;53.81
44351;BME280;62766;62.622;17.912;2023-02-28T05:57:50;101853.30;;;5.26;53.75
44351;BME280;62766;62.622;17.912;2023-02-28T06:00:19;101860.33;;;5.23;53.70
44351;BME280;62766;62.622;17.912;2023-02-28T06:02:47;101868.82;;;5.25;53.51
44351;BME280;62766;62.622;17.912;2023-02-28T06:05:17;101870.50;;;5.32;53.44
44351;BME280;62766;62.622;17.912;2023-02-28T06:07:45;101863.95;;;5.27;53.24
44351;BME280;62766;62.622;17.912;2023-02-28T06:10:14;101858.69;;;5.19;53.38
44351;BME280;62766;62.622;17.912;2023-02-28T06:12:42;101855.38;;;5.24;53.25
44351;BME280;62766;62.622;17.912;2023-02-28T06:15:13;101848.22;;;5.21;53.24
44351;BME280;62766;62.622;17.912;2023-02-28T06:17:43;101831.88;;;5.20;53.13
44351;BME280;62766;62.622;17.912;2023-02-28T06:20:12;101826.24;;;5.13;53.30
44351;BME280;62766;62.622;17.912;2023-02-28T06:22:40;101830.74;;;5.17;53.21
44351;BME280;62766;62.622;17.912;2023-02-28T06:25:09;101837.64;;;5.13;53.43
44351;BME280;62766;62.622;17.912;2023-02-28T06:27:39;101832.32;;;5.33;53.22
44351;BME280;62766;62.622;17.912;2023-02-28T06:30:08;101829.36;;;5.22;53.16
44351;BME280;62766;62.622;17.912;2023-02-28T06:32:37;101824.73;;;5.21;53.27
44351;BME280;62766;62.622;17.912;2023-02-28T06:35:06;101822.40;;;5.26;53.20
44351;BME280;62766;62.622;17.912;2023-02-28T06:37:36;101830.98;;;5.16;53.33
44351;BME280;62766;62.622;17.912;2023-02-28T06:40:05;101832.95;;;5.23;53.29
44351;BME280;62766;62.622;17.912;2023-02-28T06:42:34;101827.61;;;5.28;53.40
44351;BME280;62766;62.622;17.912;2023-02-28T06:45:03;101830.38;;;5.39;53.20
44351;BME280;62766;62.622;17.912;2023-02-28T06:47:32;101827.69;;;5.32;52.98
44351;BME280;62766;62.622;17.912;2023-02-28T06:50:01;101824.88;;;5.40;53.03
44351;BME280;62766;62.622;17.912;2023-02-28T06:52:31;101819.78;;;5.46;52.74
44351;BME280;62766;62.622;17.912;2023-02-28T06:54:59;101814.89;;;5.38;52.68
44351;BME280;62766;62.622;17.912;2023-02-28T06:57:28;101817.20;;;5.29;52.92
44351;BME280;62766;62.622;17.912;2023-02-28T06:59:58;101816.66;;;5.32;52.93
44351;BME280;62766;62.622;17.912;2023-02-28T07:02:26;101813.98;;;5.39;52.77
44351;BME280;62766;62.622;17.912;2023-02-28T07:04:54;101816.45;;;5.45;52.68
44351;BME280;62766;62.622;17.912;2023-02-28T07:07:22;101812.24;;;5.39;52.65
44351;BME280;62766;62.622;17.912;2023-02-28T07:09:51;101820.82;;;5.42;52.53
44351;BME280;62766;62.622;17.912;2023-02-28T07:12:19;101817.88;;;5.30;52.63
44351;BME280;62766;62.622;17.912;2023-02-28T07:14:47;101822.08;;;5.35;52.57
44351;BME280;62766;62.622;17.912;2023-02-28T07:17:16;101809.05;;;5.56;52.55
44351;BME280;62766;62.622;17.912;2023-02-28T07:19:44;101799.60;;;5.59;52.19
44351;BME280;62766;62.622;17.912;2023-02-28T07:22:12;101798.61;;;5.58;52.06
44351;BME280;62766;62.622;17.912;2023-02-28T07:24:41;101805.99;;;5.61;51.98
44351;BME280;62766;62.622;17.912;2023-02-28T07:27:09;101817.31;;;5.56;52.05
44351;BME280;62766;62.622;17.912;2023-02-28T07:29:38;101819.96;;;5.60;52.08
44351;BME280;62766;62.622;17.912;2023-02-28T07:32:06;101813.61;;;5.68;52.17
44351;BME280;62766;62.622;17.912;2023-02-28T07:34:34;101798.27;;;5.62;51.89
44351;BME280;62766;62.622;17.912;2023-02-28T07:37:03;101795.05;;;5.59;51.69
44351;BME280;62766;62.622;17.912;2023-02-28T07:39:33;101783.00;;;5.78;51.29
44351;BME280;62766;62.622;17.912;2023-02-28T07:42:04;101787.34;;;5.84;50.98
44351;BME280;62766;62.622;17.912;2023-02-28T07:44:33;101792.87;;;5.83;50.76
44351;BME280;62766;62.622;17.912;2023-02-28T07:47:02;101792.56;;;5.72;50.73
44351;BME280;62766;62.622;17.912;2023-02-28T07:49:31;101777.08;;;5.90;50.30
44351;BME280;62766;62.622;17.912;2023-02-28T07:51:59;101775.46;;;5.83;50.34
44351;BME280;62766;62.622;17.912;2023-02-28T07:54:28;101790.26;;;5.89;49.96
44351;BME280;62766;62.622;17.912;2023-02-28T07:56:58;101784.51;;;5.73;50.11
44351;BME280;62766;62.622;17.912;2023-02-28T07:59:26;101779.74;;;5.84;49.71
44351;BME280;62766;62.622;17.912;2023-02-28T08:01:57;101781.53;;;5.88;49.41
44351;BME280;62766;62.622;17.912;2023-02-28T08:04:25;101761.79;;;5.92;49.42
44351;BME280;62766;62.622;17.912;2023-02-28T08:06:53;101745.70;;;5.99;49.14
44351;BME280;62766;62.622;17.912;2023-02-28T08:09:21;101755.05;;;6.05;48.90
44351;BME280;62766;62.622;17.912;2023-02-28T08:11:50;101737.21;;;6.19;48.81
44351;BME280;62766;62.622;17.912;2023-02-28T08:14:18;101725.13;;;6.18;48.76
44351;BME280;62766;62.622;17.912;2023-02-28T08:16:47;101724.00;;;6.11;48.53
44351;BME280;62766;62.622;17.912;2023-02-28T08:19:15;101709.93;;;6.22;48.36
44351;BME280;62766;62.622;17.912;2023-02-28T08:21:43;101722.15;;;6.31;48.02
44351;BME280;62766;62.622;17.912;2023-02-28T08:24:12;101729.58;;;6.37;47.94
44351;BME280;62766;62.622;17.912;2023-02-28T08:26:40;101733.74;;;6.38;47.82
44351;BME280;62766;62.622;17.912;2023-02-28T08:29:08;101730.51;;;6.43;47.84
44351;BME280;62766;62.622;17.912;2023-02-28T08:31:37;101737.20;;;6.51;47.32
44351;BME280;62766;62.622;17.912;2023-02-28T08:34:06;101722.17;;;6.34;47.11
44351;BME280;62766;62.622;17.912;2023-02-28T08:36:35;101724.46;;;6.32;46.90
44351;BME280;62766;62.622;17.912;2023-02-28T08:39:04;101729.21;;;6.36;47.07
44351;BME280;62766;62.622;17.912;2023-02-28T08:41:33;101736.31;;;6.44;46.97
44351;BME280;62766;62.622;17.912;2023-02-28T08:44:03;101726.35;;;6.47;46.68
44351;BME280;62766;62.622;17.912;2023-02-28T08:46:32;101712.64;;;6.41;46.54
44351;BME280;62766;62.622;17.912;2023-02-28T08:49:00;101718.28;;;6.59;46.14
44351;BME280;62766;62.622;17.912;2023-02-28T08:51:29;101733.50;;;6.66;46.12
44351;BME280;62766;62.622;17.912;2023-02-28T08:53:58;101756.23;;;6.43;46.42
44351;BME280;62766;62.622;17.912;2023-02-28T08:56:28;101777.20;;;6.56;46.61
44351;BME280;62766;62.622;17.912;2023-02-28T08:58:56;101769.91;;;6.64;45.79
44351;BME280;62766;62.622;17.912;2023-02-28T09:01:27;101765.63;;;6.74;45.65
44351;BME280;62766;62.622;17.912;2023-02-28T09:03:56;101752.40;;;6.64;45.81
44351;BME280;62766;62.622;17.912;2023-02-28T09:06:26;101738.81;;;6.71;45.20
44351;BME280;62766;62.622;17.912;2023-02-28T09:08:57;101747.67;;;6.63;45.28
44351;BME280;62766;62.622;17.912;2023-02-28T09:11:25;101757.18;;;6.79;45.48
44351;BME280;62766;62.622;17.912;2023-02-28T09:13:53;101767.58;;;6.72;45.47
44351;BME280;62766;62.622;17.912;2023-02-28T09:16:21;101775.97;;;6.89;45.26
44351;BME280;62766;62.622;17.912;2023-02-28T09:18:50;101780.44;;;6.81;45.22
44351;BME280;62766;62.622;17.912;2023-02-28T09:21:19;101773.89;;;6.83;44.86
44351;BME280;62766;62.622;17.912;2023-02-28T09:23:49;101777.93;;;6.76;44.99
44351;BME280;62766;62.622;17.912;2023-02-28T09:26:20;101779.26;;;6.77;45.08
44351;BME280;62766;62.622;17.912;2023-02-28T09:28:49;101791.15;;;6.65;44.85
44351;BME280;62766;62.622;17.912;2023-02-28T09:31:21;101789.96;;;6.74;44.75
44351;BME280;62766;62.622;17.912;2023-02-28T09:33:52;101808.36;;;6.73;44.79
44351;BME280;62766;62.622;17.912;2023-02-28T09:36:21;101805.57;;;6.77;44.92
44351;BME280;62766;62.622;17.912;2023-02-28T09:38:50;101806.57;;;6.75;44.23
44351;BME280;62766;62.622;17.912;2023-02-28T09:41:21;101826.42;;;6.70;44.75
44351;BME280;62766;62.622;17.912;2023-02-28T09:43:53;101814.01;;;6.92;44.60
44351;BME280;62766;62.622;17.912;2023-02-28T09:46:29;101822.93;;;6.95;44.16
44351;BME280;62766;62.622;17.912;2023-02-28T09:49:02;101838.11;;;6.96;43.60
44351;BME280;62766;62.622;17.912;2023-02-28T09:51:41;101834.53;;;6.82;43.69
44351;BME280;62766;62.622;17.912;2023-02-28T09:54:14;101851.96;;;6.88;43.47
44351;BME280;62766;62.622;17.912;2023-02-28T09:56:43;101857.71;;;7.00;43.34
44351;BME280;62766;62.622;17.912;2023-02-28T09:59:17;101859.85;;;6.96;43.73
44351;BME280;62766;62.622;17.912;2023-02-28T10:01:56;101864.01;;;7.04;43.32
44351;BME280;62766;62.622;17.912;2023-02-28T10:04:39;101870.37;;;7.10;43.38
44351;BME280;62766;62.622;17.912;2023-02-28T10:07:18;101862.20;;;7.15;43.11
44351;BME280;62766;62.622;17.912;2023-02-28T10:09:53;101864.23;;;7.11;43.07
44351;BME280;62766;62.622;17.912;2023-02-28T10:12:23;101864.29;;;7.22;43.12
44351;BME280;62766;62.622;17.912;2023-02-28T10:14:54;101855.52;;;7.26;42.88
44351;BME280;62766;62.622;17.912;2023-02-28T10:17:36;101843.76;;;7.16;42.52
44351;BME280;62766;62.622;17.912;2023-02-28T10:20:12;101851.39;;;7.25;42.48
44351;BME280;62766;62.622;17.912;2023-02-28T10:22:50;101849.36;;;7.13;42.22
44351;BME280;62766;62.622;17.912;2023-02-28T10:25:22;101847.37;;;6.96;42.10
44351;BME280;62766;62.622;17.912;2023-02-28T10:27:53;101844.50;;;6.97;42.32
44351;BME280;62766;62.622;17.912;2023-02-28T10:30:21;101846.63;;;6.95;42.00
44351;BME280;62766;62.622;17.912;2023-02-28T10:32:51;101856.60;;;7.12;41.95
44351;BME280;62766;62.622;17.912;2023-02-28T10:35:22;101859.06;;;6.98;42.37
44351;BME280;62766;62.622;17.912;2023-02-28T10:37:55;101865.62;;;7.04;42.48
44351;BME280;62766;62.622;17.912;2023-02-28T10:40:29;101863.96;;;7.09;42.47
44351;BME280;62766;62.622;17.912;2023-02-28T10:43:00;101867.72;;;7.13;42.74
44351;BME280;62766;62.622;17.912;2023-02-28T10:45:30;101893.19;;;7.34;42.26
44351;BME280;62766;62.622;17.912;2023-02-28T10:48:02;101885.13;;;7.36;41.75
44351;BME280;62766;62.622;17.912;2023-02-28T10:50:37;101881.15;;;7.23;40.72
44351;BME280;62766;62.622;17.912;2023-02-28T10:53:17;101883.54;;;7.36;40.67
44351;BME280;62766;62.622;17.912;2023-02-28T10:56:01;101881.33;;;7.35;40.83
44351;BME280;62766;62.622;17.912;2023-02-28T10:58:40;101875.34;;;7.55;39.39
44351;BME280;62766;62.622;17.912;2023-02-28T11:03:28;101885.32;;;7.47;39.24
44351;BME280;62766;62.622;17.912;2023-02-28T11:05:57;101865.58;;;7.35;39.42
44351;BME280;62766;62.622;17.912;2023-02-28T11:08:25;101867.55;;;7.34;39.41
44351;BME280;62766;62.622;17.912;2023-02-28T11:10:56;101864.56;;;7.47;38.90
44351;BME280;62766;62.622;17.912;2023-02-28T11:13:29;101858.84;;;7.44;39.22
44351;BME280;62766;62.622;17.912;2023-02-28T11:16:02;101850.44;;;7.51;39.04
44351;BME280;62766;62.622;17.912;2023-02-28T11:18:38;101846.71;;;7.58;39.06
44351;BME280;62766;62.622;17.912;2023-02-28T11:21:10;101850.80;;;7.60;38.94
44351;BME280;62766;62.622;17.912;2023-02-28T11:23:43;101848.66;;;7.55;39.12
44351;BME280;62766;62.622;17.912;2023-02-28T11:26:36;101858.04;;;7.46;38.84
44351;BME280;62766;62.622;17.912;2023-02-28T11:29:12;101869.51;;;7.57;38.62
44351;BME280;62766;62.622;17.912;2023-02-28T11:31:40;101888.40;;;7.45;38.57
44351;BME280;62766;62.622;17.912;2023-02-28T11:34:26;101890.86;;;7.39;38.47
44351;BME280;62766;62.622;17.912;2023-02-28T11:36:56;101886.14;;;7.44;38.48
44351;BME280;62766;62.622;17.912;2023-02-28T11:39:26;101891.00;;;7.22;38.82
44351;BME280;62766;62.622;17.912;2023-02-28T11:42:09;101883.14;;;7.26;38.49
44351;BME280;62766;62.622;17.912;2023-02-28T11:44:50;101891.81;;;7.21;38.79
44351;BME280;62766;62.622;17.912;2023-02-28T11:47:30;101902.69;;;7.22;38.93
44351;BME280;62766;62.622;17.912;2023-02-28T11:50:11;101906.14;;;7.27;38.68
44351;BME280;62766;62.622;17.912;2023-02-28T11:52:47;101901.20;;;7.32;38.42
44351;BME280;62766;62.622;17.912;2023-02-28T11:55:21;101909.11;;;7.31;38.47
44351;BME280;62766;62.622;17.912;2023-02-28T11:58:03;101899.19;;;7.27;38.62
44351;BME280;62766;62.622;17.912;2023-02-28T12:00:40;101891.70;;;7.21;38.92
44351;BME280;62766;62.622;17.912;2023-02-28T12:03:23;101899.74;;;7.24;38.41
44351;BME280;62766;62.622;17.912;2023-02-28T12:06:02;101900.49;;;7.23;38.75
44351;BME280;62766;62.622;17.912;2023-02-28T12:08:45;101897.05;;;7.20;38.69
44351;BME280;62766;62.622;17.912;2023-02-28T12:11:23;101896.22;;;7.15;38.72
44351;BME280;62766;62.622;17.912;2023-02-28T12:14:06;101898.62;;;7.21;38.61
44351;BME280;62766;62.622;17.912;2023-02-28T12:16:55;101903.73;;;7.24;38.20
44351;BME280;62766;62.622;17.912;2023-02-28T12:19:34;101903.06;;;7.33;38.09
44351;BME280;62766;62.622;17.912;2023-02-28T12:22:21;101900.44;;;7.23;38.28
44351;BME280;62766;62.622;17.912;2023-02-28T12:25:08;101899.88;;;7.13;38.48
44351;BME280;62766;62.622;17.912;2023-02-28T12:27:46;101884.15;;;7.11;38.76
44351;BME280;62766;62.622;17.912;2023-02-28T12:30:17;101905.62;;;7.02;38.88
44351;BME280;62766;62.622;17.912;2023-02-28T12:32:51;101911.88;;;7.06;39.18
44351;BME280;62766;62.622;17.912;2023-02-28T12:35:25;101914.57;;;7.22;38.55
44351;BME280;62766;62.622;17.912;2023-02-28T12:37:57;101911.63;;;7.20;38.65
44351;BME280;62766;62.622;17.912;2023-02-28T12:40:41;101923.61;;;7.19;38.63
44351;BME280;62766;62.622;17.912;2023-02-28T12:43:13;101925.50;;;7.22;38.99
44351;BME280;62766;62.622;17.912;2023-02-28T12:45:46;101914.53;;;7.28;38.82
44351;BME280;62766;62.622;17.912;2023-02-28T12:48:21;101911.74;;;7.32;38.79
44351;BME280;62766;62.622;17.912;2023-02-28T12:50:53;101922.38;;;7.41;38.93
44351;BME280;62766;62.622;17.912;2023-02-28T12:53:26;101924.40;;;7.50;38.86
44351;BME280;62766;62.622;17.912;2023-02-28T12:56:07;101939.06;;;7.42;38.71
44351;BME280;62766;62.622;17.912;2023-02-28T12:58:40;101937.60;;;7.50;39.05
44351;BME280;62766;62.622;17.912;2023-02-28T13:01:26;101945.50;;;7.40;38.35
44351;BME280;62766;62.622;17.912;2023-02-28T13:04:14;101955.88;;;7.28;39.01
44351;BME280;62766;62.622;17.912;2023-02-28T13:07:00;101952.96;;;7.12;39.28
44351;BME280;62766;62.622;17.912;2023-02-28T13:09:38;101946.25;;;7.03;39.50
44351;BME280;62766;62.622;17.912;2023-02-28T13:12:13;101948.13;;;6.95;38.94
44351;BME280;62766;62.622;17.912;2023-02-28T13:14:42;101944.07;;;6.94;38.84
44351;BME280;62766;62.622;17.912;2023-02-28T13:17:11;101947.07;;;6.69;39.54
44351;BME280;62766;62.622;17.912;2023-02-28T13:19:43;101948.39;;;6.56;39.72